Time;durP1;ratioP1;P1;durP2;ratioP2;P2;SDS_P1;SDS_P2;PMS_P1;PMS_P2;Temp;Humidity;BMP_temperature;BMP_pressure;BME280_temperature;BME280_humidity;BME280_pressure;Samples;Min_cycle;Max_cycle;Signal;HPM_P1;HPM_P2
2023/04/29 00:01:59;;;;;;;0.63;0.43;;;15.70;67.10;;;;;;6211424;23;20024;-77
2023/04/29 00:04:25;;;;;;;0.52;0.47;;;15.70;66.70;;;;;;6211674;23;20019;-79
2023/04/29 00:06:51;;;;;;;6.10;0.57;;;15.70;66.20;;;;;;6212347;23;20020;-78
2023/04/29 00:09:17;;;;;;;0.50;0.50;;;15.60;66.30;;;;;;6185320;23;20021;-78
2023/04/29 00:11:43;;;;;;;0.40;0.40;;;15.60;66.30;;;;;;6211863;23;20613;-79
2023/04/29 00:14:09;;;;;;;0.45;0.45;;;15.60;66.50;;;;;;6211927;23;20019;-78
2023/04/29 00:16:35;;;;;;;0.75;0.40;;;15.60;66.40;;;;;;6184917;23;20067;-78
2023/04/29 00:19:02;;;;;;;0.73;0.40;;;15.50;65.80;;;;;;6212045;23;20070;-76
2023/04/29 00:21:28;;;;;;;0.40;0.40;;;15.60;65.80;;;;;;6185022;23;20021;-77
2023/04/29 00:23:55;;;;;;;0.45;0.30;;;15.50;65.70;;;;;;6211551;23;20013;-77
2023/04/29 00:26:21;;;;;;;0.35;0.35;;;15.50;65.20;;;;;;6211428;23;20024;-76
2023/04/29 00:28:48;;;;;;;0.50;0.47;;;15.50;65.10;;;;;;6211184;23;20016;-76
2023/04/29 00:31:14;;;;;;;0.30;0.30;;;15.40;64.80;;;;;;6210613;23;20080;-78
2023/04/29 00:33:40;;;;;;;0.30;0.20;;;15.40;64.80;;;;;;6211527;23;20017;-77
2023/04/29 00:36:07;;;;;;;0.60;0.20;;;15.30;64.40;;;;;;6159519;23;20372;-76
2023/04/29 00:38:33;;;;;;;0.85;0.30;;;15.30;64.50;;;;;;6184910;23;20016;-76
2023/04/29 00:40:59;;;;;;;0.73;0.25;;;15.20;64.10;;;;;;6211483;23;20032;-78
2023/04/29 00:43:25;;;;;;;0.20;0.20;;;15.10;64.70;;;;;;6211094;23;20375;-75
2023/04/29 00:45:51;;;;;;;0.20;0.17;;;15.10;64.90;;;;;;6211006;23;20012;-75
2023/04/29 00:48:17;;;;;;;0.60;0.30;;;15.10;64.60;;;;;;6209329;23;20427;-75
2023/04/29 00:50:43;;;;;;;1.25;0.20;;;15.00;64.50;;;;;;6183855;23;20020;-75
2023/04/29 00:53:13;;;;;;;0.17;0.15;;;14.90;64.50;;;;;;6210507;23;20012;-75
2023/04/29 00:55:41;;;;;;;0.30;0.30;;;15.00;64.40;;;;;;6159037;23;20352;-75
2023/04/29 00:58:08;;;;;;;1.15;0.20;;;14.90;64.10;;;;;;6134741;23;20468;-75
2023/04/29 01:00:35;;;;;;;1.10;0.20;;;14.90;64.20;;;;;;6209030;23;20020;-75
2023/04/29 01:03:03;;;;;;;0.10;0.10;;;14.90;64.00;;;;;;6183595;23;20110;-76
2023/04/29 01:05:29;;;;;;;1.55;0.20;;;14.90;64.20;;;;;;6210899;23;20024;-76
2023/04/29 01:08:25;;;;;;;0.30;0.20;;;14.80;64.30;;;;;;6209653;23;20111;-76
2023/04/29 01:11:07;;;;;;;;;;;14.70;64.10;;;;;;6184660;23;20016;-76
2023/04/29 01:13:37;;;;;;;0.47;0.22;;;14.70;64.30;;;;;;6159292;23;19914;-76
2023/04/29 01:16:12;;;;;;;0.10;0.10;;;14.70;64.30;;;;;;6209569;23;20012;-76
2023/04/29 01:18:45;;;;;;;0.30;0.20;;;14.60;64.50;;;;;;6210793;23;20023;-76
2023/04/29 01:21:13;;;;;;;1.75;0.30;;;14.60;64.60;;;;;;6183728;23;20094;-76
2023/04/29 01:23:40;;;;;;;0.30;0.30;;;14.60;64.90;;;;;;6208778;23;20028;-76
2023/04/29 01:26:07;;;;;;;0.65;0.20;;;14.50;64.40;;;;;;6159399;23;20017;-77
2023/04/29 01:29:08;;;;;;;0.43;0.17;;;14.50;64.30;;;;;;6209141;23;20021;-76
2023/04/29 01:31:44;;;;;;;0.28;0.20;;;14.50;64.40;;;;;;6159170;23;20013;-77
2023/04/29 01:34:17;;;;;;;0.40;0.17;;;14.40;63.70;;;;;;6209524;23;20670;-77
2023/04/29 01:36:48;;;;;;;0.10;0.10;;;14.40;63.90;;;;;;6210944;23;20020;-77
2023/04/29 01:39:26;;;;;;;0.20;0.20;;;14.40;64.00;;;;;;6184318;23;20139;-76
2023/04/29 01:42:22;;;;;;;0.10;0.10;;;14.30;64.00;;;;;;6209031;23;20024;-78
2023/04/29 01:44:52;;;;;;;0.38;0.20;;;14.30;63.90;;;;;;6159418;23;20040;-77
2023/04/29 01:47:21;;;;;;;0.55;0.43;;;14.20;64.00;;;;;;6159845;23;20016;-77
2023/04/29 01:49:50;;;;;;;0.20;0.20;;;14.20;63.80;;;;;;6184068;23;20083;-78
2023/04/29 01:52:16;;;;;;;0.38;0.20;;;14.20;64.10;;;;;;6208785;23;20495;-76
2023/04/29 01:54:50;;;;;;;0.63;0.20;;;14.20;64.60;;;;;;6209445;23;20012;-76
2023/04/29 01:57:18;;;;;;;0.38;0.20;;;14.20;64.60;;;;;;6183458;23;20083;-76
2023/04/29 01:59:54;;;;;;;0.20;0.20;;;14.10;64.80;;;;;;6209147;23;20372;-76
2023/04/29 02:02:39;;;;;;;0.30;0.30;;;14.20;64.80;;;;;;6187603;23;20035;-78
2023/04/29 02:05:21;;;;;;;0.40;0.40;;;14.10;64.40;;;;;;6183651;23;20079;-77
2023/04/29 02:07:54;;;;;;;2.35;0.20;;;14.10;64.20;;;;;;6160847;23;20362;-76
2023/04/29 02:10:20;;;;;;;0.20;0.20;;;14.10;64.10;;;;;;6158754;23;20020;-76
2023/04/29 02:12:48;;;;;;;0.63;0.25;;;14.10;64.20;;;;;;6209485;23;20034;-76
2023/04/29 02:15:16;;;;;;;0.30;0.30;;;14.00;64.40;;;;;;6208555;23;20031;-76
2023/04/29 02:17:42;;;;;;;0.20;0.20;;;14.00;64.60;;;;;;6210388;23;20055;-77
2023/04/29 02:20:09;;;;;;;1.55;0.30;;;14.00;64.40;;;;;;6184027;23;20455;-77
2023/04/29 02:22:35;;;;;;;0.43;0.43;;;14.00;64.30;;;;;;6209750;23;20100;-77
2023/04/29 02:25:01;;;;;;;0.35;0.20;;;13.90;64.90;;;;;;6184483;23;20017;-77
2023/04/29 02:27:27;;;;;;;0.30;0.30;;;13.90;64.90;;;;;;6183981;23;20026;-78
2023/04/29 02:29:53;;;;;;;0.20;0.20;;;13.90;64.80;;;;;;6185744;23;20013;-78
2023/04/29 02:32:19;;;;;;;0.52;0.30;;;13.90;64.50;;;;;;6186001;23;20023;-77
2023/04/29 02:34:46;;;;;;;0.57;0.40;;;13.90;64.80;;;;;;6211378;23;20024;-79
2023/04/29 02:37:12;;;;;;;3.60;0.45;;;13.90;64.80;;;;;;6161857;23;20099;-77
2023/04/29 02:39:40;;;;;;;0.73;0.35;;;13.90;64.80;;;;;;6209017;23;20539;-77
2023/04/29 02:42:06;;;;;;;0.63;0.20;;;13.90;64.80;;;;;;6211433;23;20040;-79
2023/04/29 02:44:32;;;;;;;1.77;0.30;;;13.90;64.80;;;;;;6160743;23;20028;-77
2023/04/29 02:46:58;;;;;;;0.47;0.30;;;13.80;64.40;;;;;;6185080;23;20032;-77
2023/04/29 02:49:24;;;;;;;0.20;0.20;;;13.90;64.80;;;;;;6210631;23;20012;-76
2023/04/29 02:51:50;;;;;;;0.65;0.30;;;13.80;64.50;;;;;;6186130;23;20043;-76
2023/04/29 02:54:17;;;;;;;0.25;0.20;;;13.80;64.50;;;;;;6210386;23;20024;-77
2023/04/29 02:56:44;;;;;;;0.65;0.30;;;13.80;64.40;;;;;;6185874;23;20021;-77
2023/04/29 02:59:10;;;;;;;0.35;0.35;;;13.80;64.50;;;;;;6195738;23;20103;-77
2023/04/29 03:01:37;;;;;;;0.98;0.20;;;13.80;64.30;;;;;;6185401;23;20018;-77
2023/04/29 03:04:05;;;;;;;1.75;0.30;;;13.80;64.60;;;;;;6212510;23;20012;-77
2023/04/29 03:06:32;;;;;;;0.50;0.30;;;13.80;64.60;;;;;;6185170;23;20419;-76
2023/04/29 03:08:58;;;;;;;0.25;0.20;;;13.70;64.20;;;;;;6212235;23;20036;-76
2023/04/29 03:11:24;;;;;;;1.13;0.30;;;13.70;64.60;;;;;;6185028;23;20016;-76
2023/04/29 03:13:50;;;;;;;0.93;0.30;;;13.70;64.40;;;;;;6212282;23;20016;-77
2023/04/29 03:16:16;;;;;;;1.45;0.30;;;13.70;64.70;;;;;;6185717;23;20016;-77
2023/04/29 03:18:43;;;;;;;0.40;0.40;;;13.60;64.80;;;;;;6185346;23;20020;-77
2023/04/29 03:21:10;;;;;;;0.32;0.32;;;13.60;64.20;;;;;;6211363;23;20027;-78
2023/04/29 03:23:38;;;;;;;0.30;0.30;;;13.60;64.00;;;;;;6184972;23;20032;-78
2023/04/29 03:26:05;;;;;;;1.00;0.43;;;13.60;64.20;;;;;;6210466;23;20092;-76
2023/04/29 03:28:34;;;;;;;0.75;0.32;;;13.60;64.00;;;;;;6184959;23;20008;-77
2023/04/29 03:31:00;;;;;;;0.68;0.40;;;13.50;64.50;;;;;;6211987;23;20439;-78
2023/04/29 03:33:26;;;;;;;0.15;0.15;;;13.50;64.80;;;;;;6211533;23;20017;-77
2023/04/29 03:35:52;;;;;;;0.90;0.30;;;13.50;65.00;;;;;;6135495;23;20471;-77
2023/04/29 03:38:31;;;;;;;1.00;0.50;;;13.40;64.80;;;;;;6210190;23;20016;-76
2023/04/29 03:40:57;;;;;;;0.88;0.43;;;13.40;64.40;;;;;;6211614;23;20012;-77
2023/04/29 03:43:26;;;;;;;0.50;0.50;;;13.40;64.10;;;;;;6210025;23;20012;-76
2023/04/29 03:45:54;;;;;;;0.52;0.32;;;13.40;64.20;;;;;;6186248;23;20368;-76
2023/04/29 03:48:22;;;;;;;0.38;0.38;;;13.40;64.00;;;;;;6183447;23;20021;-77
2023/04/29 03:50:48;;;;;;;0.68;0.40;;;13.40;63.80;;;;;;6185369;23;20047;-78
2023/04/29 03:53:15;;;;;;;0.38;0.30;;;13.40;63.70;;;;;;6211532;23;20012;-77
2023/04/29 03:55:41;;;;;;;0.57;0.25;;;13.40;63.90;;;;;;6211303;23;20466;-77
2023/04/29 03:58:08;;;;;;;0.47;0.35;;;13.30;63.90;;;;;;6210412;23;20590;-77
2023/04/29 04:00:34;;;;;;;0.30;0.30;;;13.30;63.60;;;;;;6210040;23;20044;-77
2023/04/29 04:03:05;;;;;;;0.90;0.30;;;13.30;63.30;;;;;;6160586;23;20644;-78
2023/04/29 04:05:31;;;;;;;0.55;0.30;;;13.30;63.40;;;;;;6210038;23;20072;-77
2023/04/29 04:08:05;;;;;;;0.63;0.30;;;13.30;64.20;;;;;;6174275;23;20015;-76
2023/04/29 04:10:44;;;;;;;0.20;0.20;;;13.30;64.40;;;;;;6211027;23;20016;-78
2023/04/29 04:13:33;;;;;;;0.50;0.30;;;13.20;64.70;;;;;;6199116;23;20008;-78
2023/04/29 04:15:59;;;;;;;0.20;0.20;;;13.20;65.10;;;;;;6160502;23;20008;-79
2023/04/29 04:18:25;;;;;;;0.70;0.30;;;13.30;65.10;;;;;;6160209;23;20044;-78
2023/04/29 04:20:51;;;;;;;0.52;0.35;;;13.30;64.90;;;;;;6135756;23;20021;-78
2023/04/29 04:23:17;;;;;;;0.20;0.20;;;13.30;64.50;;;;;;6184333;23;20024;-77
2023/04/29 04:25:45;;;;;;;0.60;0.30;;;13.20;64.40;;;;;;6210000;23;20013;-79
2023/04/29 04:28:40;;;;;;;0.30;0.30;;;13.20;64.40;;;;;;6171669;23;20080;-78
2023/04/29 04:31:15;;;;;;;0.65;0.35;;;13.30;64.60;;;;;;6210662;23;20084;-77
2023/04/29 04:33:41;;;;;;;0.30;0.30;;;13.30;64.60;;;;;;6184576;23;20025;-79
2023/04/29 04:36:07;;;;;;;0.57;0.30;;;13.20;64.50;;;;;;6160021;23;20016;-79
2023/04/29 04:38:34;;;;;;;0.40;0.30;;;13.30;64.20;;;;;;6185257;23;20017;-79
2023/04/29 04:41:07;;;;;;;0.35;0.30;;;13.20;64.10;;;;;;6161452;23;20015;-78
2023/04/29 04:43:38;;;;;;;0.65;0.20;;;13.20;63.80;;;;;;6184989;23;20040;-79
2023/04/29 04:46:13;;;;;;;0.60;0.30;;;13.20;63.90;;;;;;6185863;23;20008;-78
2023/04/29 04:48:46;;;;;;;0.32;0.32;;;13.20;64.60;;;;;;6183296;23;20028;-78
2023/04/29 04:51:13;;;;;;;1.65;0.30;;;13.20;64.30;;;;;;6209750;23;20554;-80
2023/04/29 04:53:40;;;;;;;0.63;0.30;;;13.20;64.30;;;;;;6209896;23;20055;-80
2023/04/29 04:56:10;;;;;;;1.83;0.30;;;13.20;64.60;;;;;;6184681;23;20016;-79
2023/04/29 04:58:37;;;;;;;1.95;0.38;;;13.20;64.50;;;;;;6185082;23;20308;-81
2023/04/29 05:01:03;;;;;;;0.60;0.35;;;13.10;64.20;;;;;;6136137;23;20009;-82
2023/04/29 05:03:29;;;;;;;0.30;0.30;;;13.10;64.00;;;;;;6185871;23;20021;-81
2023/04/29 05:05:57;;;;;;;0.68;0.45;;;13.10;64.10;;;;;;6160970;23;20024;-80
2023/04/29 05:08:24;;;;;;;1.60;0.70;;;13.00;63.50;;;;;;6160639;23;20048;-81
2023/04/29 05:10:52;;;;;;;0.52;0.52;;;13.00;63.60;;;;;;6161504;23;20075;-80
2023/04/29 05:13:20;;;;;;;1.35;0.80;;;13.00;63.50;;;;;;6135907;23;20051;-79
2023/04/29 05:15:46;;;;;;;0.60;0.60;;;12.90;63.40;;;;;;6160477;23;20047;-80
2023/04/29 05:18:16;;;;;;;1.13;0.77;;;12.90;63.20;;;;;;6184765;23;20316;-79
2023/04/29 05:20:44;;;;;;;1.35;0.70;;;12.80;63.10;;;;;;6185557;23;20021;-78
2023/04/29 05:23:10;;;;;;;2.35;0.98;;;12.70;62.90;;;;;;6211589;23;20032;-79
2023/04/29 05:25:39;;;;;;;2.40;0.65;;;12.70;63.30;;;;;;6160728;23;20016;-79
2023/04/29 05:28:06;;;;;;;1.08;0.50;;;12.80;63.90;;;;;;6185846;23;20139;-78
2023/04/29 05:30:34;;;;;;;1.52;0.60;;;12.80;64.30;;;;;;6159341;23;20028;-80
2023/04/29 05:33:00;;;;;;;1.90;0.70;;;12.90;64.30;;;;;;6184751;23;20016;-80
2023/04/29 05:35:32;;;;;;;2.38;0.70;;;12.90;64.40;;;;;;6159500;23;20070;-81
2023/04/29 05:38:01;;;;;;;0.65;0.65;;;13.00;64.60;;;;;;6183045;23;20066;-79
2023/04/29 05:40:51;;;;;;;0.98;0.70;;;13.00;64.50;;;;;;6184792;23;20032;-77
2023/04/29 05:43:41;;;;;;;1.10;0.80;;;12.90;64.60;;;;;;6184766;23;20025;-79
2023/04/29 05:46:07;;;;;;;3.67;0.90;;;13.00;64.70;;;;;;6160397;23;20043;-79
2023/04/29 05:48:33;;;;;;;0.80;0.70;;;12.90;65.00;;;;;;6159681;23;20075;-78
2023/04/29 05:50:59;;;;;;;1.90;0.68;;;12.90;64.80;;;;;;6183785;23;20344;-80
2023/04/29 05:53:25;;;;;;;1.50;0.63;;;13.00;64.80;;;;;;6159549;23;20487;-80
2023/04/29 05:55:52;;;;;;;1.63;0.80;;;13.00;65.00;;;;;;6209151;23;20023;-79
2023/04/29 05:58:20;;;;;;;2.03;0.90;;;13.00;65.00;;;;;;6159490;23;20103;-79
2023/04/29 06:00:48;;;;;;;0.70;0.70;;;13.00;65.20;;;;;;6184852;23;20013;-80
2023/04/29 06:03:25;;;;;;;1.92;0.77;;;13.10;65.20;;;;;;6208955;23;20027;-79
2023/04/29 06:06:10;;;;;;;1.25;0.80;;;13.00;65.00;;;;;;6138692;23;20096;-80
2023/04/29 06:08:46;;;;;;;2.58;0.70;;;13.10;65.70;;;;;;6162178;23;20023;-80
2023/04/29 06:11:25;;;;;;;0.90;0.88;;;13.10;65.30;;;;;;6162393;23;20032;-80
2023/04/29 06:13:51;;;;;;;0.77;0.77;;;13.10;65.10;;;;;;6135216;23;20017;-79
2023/04/29 06:16:17;;;;;;;0.95;0.70;;;13.10;64.80;;;;;;6135684;23;20359;-80
2023/04/29 06:18:43;;;;;;;1.02;0.90;;;13.10;64.70;;;;;;6184669;23;20021;-80
2023/04/29 06:21:09;;;;;;;0.98;0.80;;;13.10;64.80;;;;;;6184510;23;20468;-80
2023/04/29 06:23:35;;;;;;;1.17;0.80;;;13.00;65.00;;;;;;6210561;23;20083;-79
2023/04/29 06:26:06;;;;;;;1.25;1.02;;;13.10;65.10;;;;;;6209341;23;20024;-80
2023/04/29 06:28:33;;;;;;;0.85;0.85;;;13.10;65.20;;;;;;6208923;23;20012;-79
2023/04/29 06:30:59;;;;;;;1.33;0.80;;;13.20;65.30;;;;;;6159559;23;20356;-80
2023/04/29 06:33:25;;;;;;;2.13;0.80;;;13.20;65.10;;;;;;6183706;23;20016;-79
2023/04/29 06:35:52;;;;;;;1.15;1.00;;;13.20;65.00;;;;;;6159475;23;20040;-80
2023/04/29 06:38:36;;;;;;;1.05;0.70;;;13.20;65.10;;;;;;6163331;23;20095;-79
2023/04/29 06:41:32;;;;;;;0.80;0.70;;;13.20;65.00;;;;;;6203564;23;20020;-82
2023/04/29 06:44:15;;;;;;;0.75;0.50;;;13.20;64.50;;;;;;6138279;23;20009;-80
2023/04/29 06:46:59;;;;;;;1.70;0.82;;;13.20;64.60;;;;;;6187194;23;20039;-79
2023/04/29 06:49:35;;;;;;;1.20;0.93;;;13.20;64.60;;;;;;6183902;23;20062;-81
2023/04/29 06:52:01;;;;;;;1.58;0.88;;;13.20;64.20;;;;;;6160155;23;20023;-79
2023/04/29 06:54:28;;;;;;;1.00;0.90;;;13.10;63.60;;;;;;6159907;23;20027;-81
2023/04/29 06:56:56;;;;;;;0.85;0.85;;;13.20;63.60;;;;;;6209555;23;20028;-81
2023/04/29 06:59:22;;;;;;;2.15;0.80;;;13.30;63.80;;;;;;6159728;23;20542;-81
2023/04/29 07:01:48;;;;;;;2.05;0.98;;;13.40;63.50;;;;;;6160018;23;20108;-81
2023/04/29 07:04:14;;;;;;;0.68;0.68;;;13.40;63.60;;;;;;6160815;23;20017;-81
2023/04/29 07:06:40;;;;;;;0.98;0.98;;;13.50;62.90;;;;;;6184327;23;20094;-79
2023/04/29 07:09:07;;;;;;;1.25;0.93;;;13.50;63.50;;;;;;6159670;23;20040;-79
2023/04/29 07:11:33;;;;;;;2.03;1.08;;;13.60;62.50;;;;;;6210819;23;20024;-81
2023/04/29 07:14:07;;;;;;;1.27;0.88;;;13.80;62.40;;;;;;6159799;23;20019;-80
2023/04/29 07:16:33;;;;;;;0.88;0.88;;;13.90;62.80;;;;;;6186679;23;20045;-81
2023/04/29 07:18:59;;;;;;;1.55;0.85;;;14.00;62.30;;;;;;6213671;23;20012;-83
2023/04/29 07:21:26;;;;;;;0.80;0.80;;;14.10;61.60;;;;;;6137059;23;20016;-86
2023/04/29 07:23:54;;;;;;;4.18;1.00;;;14.10;61.90;;;;;;6161842;23;20486;-79
2023/04/29 07:26:20;;;;;;;2.08;1.05;;;14.20;62.30;;;;;;6160783;23;20139;-81
2023/04/29 07:28:48;;;;;;;0.88;0.70;;;14.20;62.10;;;;;;6136223;23;20036;-83
2023/04/29 07:31:15;;;;;;;4.70;0.60;;;14.30;62.50;;;;;;6160504;23;20036;-80
2023/04/29 07:33:45;;;;;;;0.70;0.70;;;14.40;63.20;;;;;;6184576;23;20027;-81
2023/04/29 07:36:11;;;;;;;0.70;0.65;;;14.50;63.30;;;;;;6211717;23;20032;-80
2023/04/29 07:38:37;;;;;;;0.80;0.70;;;14.60;63.60;;;;;;6158925;23;20017;-79
2023/04/29 07:41:03;;;;;;;1.65;0.60;;;14.80;63.60;;;;;;6183350;23;20021;-81
2023/04/29 07:43:29;;;;;;;0.60;0.60;;;14.90;63.40;;;;;;6182703;23;20012;-79
2023/04/29 07:45:55;;;;;;;1.73;0.80;;;15.00;63.60;;;;;;6133831;23;20111;-81
2023/04/29 07:48:21;;;;;;;2.30;0.90;;;15.10;63.50;;;;;;6182809;23;20380;-81
2023/04/29 07:50:48;;;;;;;1.00;0.70;;;15.10;63.30;;;;;;6133634;23;20363;-81
2023/04/29 07:53:17;;;;;;;1.48;0.80;;;15.20;63.20;;;;;;6133670;23;20008;-81
2023/04/29 07:55:43;;;;;;;1.35;0.73;;;15.20;63.20;;;;;;6208225;23;20021;-80
2023/04/29 07:58:09;;;;;;;4.30;1.00;;;15.20;63.20;;;;;;6159089;23;20016;-78
2023/04/29 08:00:35;;;;;;;1.70;1.33;;;15.30;62.90;;;;;;6158549;23;20016;-79
2023/04/29 08:03:01;;;;;;;2.47;1.20;;;15.30;63.20;;;;;;6212266;23;20020;-83
2023/04/29 08:05:29;;;;;;;1.70;1.10;;;15.40;64.10;;;;;;6134155;23;20017;-77
2023/04/29 08:07:55;;;;;;;2.03;1.45;;;15.40;64.80;;;;;;6181391;23;20019;-79
2023/04/29 08:10:24;;;;;;;4.13;1.33;;;15.40;65.00;;;;;;6183384;23;20016;-77
2023/04/29 08:12:51;;;;;;;7.57;2.20;;;15.50;65.40;;;;;;6209063;23;20008;-78
2023/04/29 08:15:17;;;;;;;5.47;2.17;;;15.40;65.40;;;;;;6206361;23;20028;-88
2023/04/29 08:17:43;;;;;;;3.25;1.63;;;15.50;65.50;;;;;;6207197;23;20349;-79
2023/04/29 08:20:10;;;;;;;6.40;2.45;;;15.50;65.70;;;;;;6182369;23;20028;-78
2023/04/29 08:22:36;;;;;;;4.63;1.70;;;15.60;65.90;;;;;;6133006;23;20017;-79
2023/04/29 08:25:04;;;;;;;5.18;1.80;;;15.70;66.00;;;;;;6210032;23;20664;-80
2023/04/29 08:27:30;;;;;;;4.70;2.15;;;15.80;65.70;;;;;;6209296;23;20013;-79
2023/04/29 08:29:56;;;;;;;4.50;1.77;;;15.90;65.50;;;;;;6209437;23;20596;-81
2023/04/29 08:32:22;;;;;;;6.90;1.70;;;16.00;65.00;;;;;;6133236;23;20071;-77
2023/04/29 08:34:48;;;;;;;3.58;1.25;;;16.00;64.30;;;;;;6209295;23;20063;-79
2023/04/29 08:37:15;;;;;;;2.80;1.67;;;16.10;63.30;;;;;;6184281;23;20020;-81
2023/04/29 08:39:46;;;;;;;2.25;1.20;;;16.10;62.70;;;;;;6209093;23;20020;-80
2023/04/29 08:42:12;;;;;;;4.18;1.67;;;16.20;62.90;;;;;;6181689;23;20786;-82
2023/04/29 08:44:40;;;;;;;3.92;1.45;;;16.20;63.20;;;;;;6208591;23;20020;-80
2023/04/29 08:47:06;;;;;;;2.55;1.52;;;16.20;63.40;;;;;;6182714;23;20009;-80
2023/04/29 08:49:32;;;;;;;3.55;2.13;;;16.20;63.50;;;;;;6207732;23;20012;-81
2023/04/29 08:51:59;;;;;;;3.15;1.50;;;16.20;63.40;;;;;;6158003;23;20369;-79
2023/04/29 08:54:27;;;;;;;3.58;1.60;;;16.30;63.50;;;;;;6209688;23;20040;-80
2023/04/29 08:56:56;;;;;;;3.53;1.45;;;16.30;63.10;;;;;;6157657;23;20021;-81
2023/04/29 08:59:24;;;;;;;4.93;1.70;;;16.30;63.00;;;;;;6209323;23;20024;-81
2023/04/29 09:01:52;;;;;;;2.80;1.50;;;16.30;62.50;;;;;;6208001;23;20476;-81
2023/04/29 09:04:36;;;;;;;2.63;1.48;;;16.40;61.80;;;;;;6209989;23;20079;-79
2023/04/29 09:07:04;;;;;;;2.55;1.45;;;16.40;61.30;;;;;;6183068;23;20009;-79
2023/04/29 09:09:32;;;;;;;2.80;1.33;;;16.40;59.80;;;;;;6208534;23;20460;-81
2023/04/29 09:11:58;;;;;;;2.55;1.40;;;16.40;59.60;;;;;;6210527;23;20341;-79
2023/04/29 09:14:24;;;;;;;2.28;1.30;;;16.40;59.10;;;;;;6209669;23;20376;-80
2023/04/29 09:16:50;;;;;;;1.42;1.30;;;16.40;58.90;;;;;;6210233;23;20122;-82
2023/04/29 09:19:30;;;;;;;1.73;1.10;;;16.50;59.20;;;;;;6158187;23;20013;-79
2023/04/29 09:21:57;;;;;;;2.85;1.58;;;16.60;59.70;;;;;;6208594;23;20427;-81
2023/04/29 09:24:27;;;;;;;2.42;1.38;;;16.60;59.70;;;;;;6157131;23;20017;-78
2023/04/29 09:26:54;;;;;;;2.72;1.48;;;16.60;59.60;;;;;;6208530;23;20012;-81
2023/04/29 09:29:21;;;;;;;2.38;1.25;;;16.60;58.80;;;;;;6209286;23;20421;-79
2023/04/29 09:31:48;;;;;;;2.45;1.20;;;16.60;57.80;;;;;;6158353;23;20096;-79
2023/04/29 09:34:15;;;;;;;3.78;1.00;;;16.60;57.80;;;;;;6184230;23;20009;-81
2023/04/29 09:36:45;;;;;;;2.10;1.23;;;16.60;58.00;;;;;;6179275;23;20065;-79
2023/04/29 09:39:14;;;;;;;1.77;1.17;;;16.70;58.00;;;;;;6181248;23;20078;-80
2023/04/29 09:42:01;;;;;;;3.17;1.15;;;16.60;57.70;;;;;;6208913;23;20473;-79
2023/04/29 09:44:34;;;;;;;1.45;1.00;;;16.60;57.00;;;;;;6157582;23;20479;-79
2023/04/29 09:47:08;;;;;;;2.42;1.15;;;16.60;56.50;;;;;;6133702;23;20023;-80
2023/04/29 09:49:40;;;;;;;2.60;1.35;;;16.60;56.40;;;;;;6207899;23;20456;-78
2023/04/29 09:52:19;;;;;;;2.65;1.20;;;16.70;56.50;;;;;;6208637;23;20016;-79
2023/04/29 09:54:45;;;;;;;1.75;0.98;;;16.70;57.20;;;;;;6181159;23;20031;-80
2023/04/29 09:57:15;;;;;;;3.83;1.38;;;16.80;59.90;;;;;;6181594;23;20531;-80
2023/04/29 09:59:41;;;;;;;1.67;1.23;;;16.80;59.60;;;;;;6134712;23;20027;-80
2023/04/29 10:02:19;;;;;;;6.40;1.45;;;16.80;58.60;;;;;;6158229;23;20020;-79
2023/04/29 10:04:47;;;;;;;2.95;0.95;;;16.90;57.80;;;;;;6209646;23;20016;-82
2023/04/29 10:07:17;;;;;;;3.45;1.40;;;16.90;56.60;;;;;;6159159;23;20015;-80
2023/04/29 10:09:45;;;;;;;2.28;1.00;;;16.90;55.60;;;;;;6182869;23;20427;-81
2023/04/29 10:12:15;;;;;;;1.00;0.90;;;16.90;54.60;;;;;;6183007;23;20020;-79
2023/04/29 10:15:03;;;;;;;2.13;1.00;;;16.90;53.70;;;;;;6133846;23;20016;-79
2023/04/29 10:17:36;;;;;;;3.58;1.00;;;16.90;53.30;;;;;;6182649;23;20091;-81
2023/04/29 10:20:04;;;;;;;1.95;1.10;;;16.90;63.30;;;;;;6208952;23;20032;-73
2023/04/29 10:22:49;;;;;;;4.50;1.73;;;17.10;68.70;;;;;;6209191;23;20040;-76
2023/04/29 10:25:17;;;;;;;8.30;2.80;;;17.20;70.50;;;;;;6208575;23;20388;-74
2023/04/29 10:27:44;;;;;;;7.30;4.30;;;17.30;71.40;;;;;;6210628;23;20020;-75
2023/04/29 10:30:15;;;;;;;9.55;4.47;;;17.50;73.10;;;;;;6210657;23;20025;-75
2023/04/29 10:32:45;;;;;;;8.40;4.72;;;17.60;73.90;;;;;;6209644;23;20031;-75
2023/04/29 10:35:13;;;;;;;13.40;5.10;;;17.80;74.80;;;;;;6210596;23;20376;-84
2023/04/29 10:37:44;;;;;;;8.48;4.30;;;17.80;71.90;;;;;;6183298;23;20031;-85
2023/04/29 10:40:15;;;;;;;9.90;4.40;;;17.90;67.70;;;;;;6209759;23;20094;-80
2023/04/29 10:42:41;;;;;;;7.30;3.20;;;17.90;64.50;;;;;;6182825;23;20025;-80
2023/04/29 10:45:28;;;;;;;4.85;2.75;;;17.90;62.00;;;;;;6209920;23;20545;-81
2023/04/29 10:48:07;;;;;;;5.35;2.53;;;17.90;60.80;;;;;;6182966;23;20051;-85
2023/04/29 10:50:48;;;;;;;4.80;2.00;;;17.90;58.50;;;;;;6211271;23;20099;-84
2023/04/29 10:53:20;;;;;;;4.95;2.22;;;17.90;56.80;;;;;;6211770;23;20015;-82
2023/04/29 10:55:52;;;;;;;2.90;1.77;;;17.90;54.80;;;;;;6184921;23;20013;-84
2023/04/29 10:58:34;;;;;;;3.08;1.90;;;17.80;54.50;;;;;;6212516;23;20008;-82
2023/04/29 11:01:00;;;;;;;2.38;1.77;;;17.80;54.40;;;;;;6184393;23;20019;-80
2023/04/29 11:03:53;;;;;;;3.63;1.60;;;17.80;53.80;;;;;;6206438;23;20447;-78
2023/04/29 11:06:24;;;;;;;2.88;1.70;;;17.70;54.00;;;;;;6210178;23;20112;-80
2023/04/29 11:09:25;;;;;;;2.10;1.35;;;17.70;53.40;;;;;;6185341;23;20023;-79
2023/04/29 11:11:53;;;;;;;3.38;1.92;;;17.70;54.10;;;;;;6150053;23;20016;-78
2023/04/29 11:14:37;;;;;;;5.10;1.83;;;17.70;54.40;;;;;;6212615;23;20452;-80
2023/04/29 11:17:14;;;;;;;2.00;1.85;;;17.70;55.10;;;;;;6184119;23;20027;-78
2023/04/29 11:19:48;;;;;;;2.78;1.90;;;17.70;55.50;;;;;;6211552;23;20013;-79
2023/04/29 11:22:25;;;;;;;2.25;1.38;;;17.70;55.50;;;;;;6185478;23;20451;-78
2023/04/29 11:24:56;;;;;;;2.45;1.40;;;17.70;55.50;;;;;;6185717;23;20017;-79
2023/04/29 11:27:25;;;;;;;2.58;1.42;;;17.60;54.70;;;;;;6210382;23;20024;-81
2023/04/29 11:29:59;;;;;;;3.13;1.40;;;17.60;55.10;;;;;;6185368;23;20338;-79
2023/04/29 11:32:27;;;;;;;2.88;1.60;;;17.60;54.80;;;;;;6211222;23;20033;-77
2023/04/29 11:34:53;;;;;;;4.05;1.95;;;17.60;54.90;;;;;;6211294;23;20345;-76
2023/04/29 11:37:21;;;;;;;2.40;1.60;;;17.60;55.30;;;;;;6184369;23;20430;-80
2023/04/29 11:39:48;;;;;;;1.85;1.20;;;17.60;55.00;;;;;;6212227;23;20479;-78
2023/04/29 11:42:20;;;;;;;3.28;1.60;;;17.60;55.00;;;;;;6211631;23;20049;-78
2023/04/29 11:44:45;;;;;;;4.72;1.48;;;17.60;54.60;;;;;;6184698;23;20021;-85
2023/04/29 11:47:12;;;;;;;2.95;1.30;;;17.60;54.40;;;;;;6185156;23;20028;-84
2023/04/29 11:49:38;;;;;;;7.53;1.40;;;17.60;53.80;;;;;;6211706;23;20023;-80
2023/04/29 11:52:04;;;;;;;2.05;1.35;;;17.60;53.40;;;;;;6212099;23;20009;-81
2023/04/29 11:54:30;;;;;;;3.33;1.10;;;17.50;53.40;;;;;;6211637;23;20021;-84
2023/04/29 11:57:03;;;;;;;2.75;1.58;;;17.50;53.40;;;;;;6208947;23;20021;-81
2023/04/29 11:59:31;;;;;;;2.47;1.80;;;17.50;53.50;;;;;;6184464;23;20371;-82
2023/04/29 12:02:00;;;;;;;1.75;1.10;;;17.50;53.50;;;;;;6207635;23;20043;-80
2023/04/29 12:04:45;;;;;;;1.38;1.15;;;17.50;54.10;;;;;;6210526;23;20429;-81
2023/04/29 12:07:17;;;;;;;3.10;1.30;;;17.50;54.40;;;;;;6135904;23;20012;-81
2023/04/29 12:10:00;;;;;;;3.80;1.50;;;17.50;54.70;;;;;;6185249;23;20019;-77
2023/04/29 12:12:33;;;;;;;3.75;1.45;;;17.50;54.00;;;;;;6159478;23;20051;-82
2023/04/29 12:19:41;;;;;;;2.65;1.40;;;17.50;54.40;;;;;;6150648;23;20406;-80
2023/04/29 12:22:21;;;;;;;2.13;1.30;;;17.50;53.60;;;;;;6129189;23;20447;-81
2023/04/29 12:24:49;;;;;;;3.05;1.40;;;17.40;52.70;;;;;;6151549;23;20009;-82
2023/04/29 12:27:15;;;;;;;3.15;1.38;;;17.40;52.10;;;;;;6126045;23;20021;-81
2023/04/29 12:29:41;;;;;;;1.45;1.10;;;17.40;52.50;;;;;;6126111;23;20021;-80
2023/04/29 12:32:15;;;;;;;2.75;1.30;;;17.40;52.40;;;;;;6175108;23;20044;-80
2023/04/29 12:34:41;;;;;;;2.35;1.35;;;17.30;52.20;;;;;;6127599;23;20013;-82
2023/04/29 12:37:17;;;;;;;1.85;1.10;;;17.40;52.30;;;;;;6153341;23;20467;-81
2023/04/29 12:39:43;;;;;;;;;;;17.40;52.50;;;;;;6153022;23;20384;-81
2023/04/29 12:42:18;;;;;;;;;;;17.40;52.90;;;;;;6152886;23;19927;-81
2023/04/29 12:44:46;;;;;;;3.42;1.48;;;17.40;52.80;;;;;;6177199;23;20011;-80
2023/04/29 12:47:13;;;;;;;2.45;1.30;;;17.40;52.30;;;;;;6176949;23;20021;-81
2023/04/29 12:49:45;;;;;;;3.75;1.30;;;17.40;52.00;;;;;;6178045;23;20025;-80
2023/04/29 12:52:12;;;;;;;1.77;1.23;;;17.40;52.20;;;;;;6177891;23;20009;-80
2023/04/29 12:54:42;;;;;;;1.52;1.00;;;17.40;52.00;;;;;;6151932;23;20037;-82
2023/04/29 12:57:09;;;;;;;3.58;1.30;;;17.30;51.90;;;;;;6176592;23;20473;-81
2023/04/29 12:59:36;;;;;;;3.10;1.00;;;17.40;51.80;;;;;;6178623;23;20372;-81
2023/04/29 13:02:02;;;;;;;1.70;1.25;;;17.40;51.40;;;;;;6151543;23;20354;-81
2023/04/29 13:04:28;;;;;;;3.28;1.23;;;17.40;51.50;;;;;;6127127;23;20453;-81
2023/04/29 13:06:59;;;;;;;1.92;1.00;;;17.40;51.20;;;;;;6202370;23;20089;-81